Time;durP1;ratioP1;P1;durP2;ratioP2;P2;SDS_P1;SDS_P2;PMS_P1;PMS_P2;Temp;Humidity;BMP_temperature;BMP_pressure;BME280_temperature;BME280_humidity;BME280_pressure;Samples;Min_cycle;Max_cycle;Signal;HPM_P1;HPM_P2
2022/10/29 00:01:29;;;;;;;16.50;8.35;;;;;;;14.42;100.00;102142.38;5074693;28;20073;-35
2022/10/29 00:03:54;;;;;;;15.70;8.30;;;;;;;14.43;100.00;102138.59;5074979;28;20032;-35
2022/10/29 00:06:19;;;;;;;14.47;8.40;;;;;;;14.31;100.00;102120.53;5075168;28;20401;-35
2022/10/29 00:08:45;;;;;;;;;;;;;;;14.46;100.00;102121.00;5075630;28;20522;-35
2022/10/29 00:11:17;;;;;;;15.00;8.25;;;;;;;14.23;100.00;102105.31;5074782;28;19916;-36
2022/10/29 00:13:43;;;;;;;19.63;8.52;;;;;;;14.26;100.00;102114.94;5107813;28;20025;-35
2022/10/29 00:16:15;;;;;;;19.73;8.77;;;;;;;14.22;100.00;102114.53;5074463;28;20127;-36
2022/10/29 00:18:40;;;;;;;17.00;8.50;;;;;;;14.14;100.00;102112.91;5074748;28;20078;-36
2022/10/29 00:21:10;;;;;;;15.75;8.55;;;;;;;14.14;100.00;102107.47;5074619;28;20033;-35
2022/10/29 00:23:35;;;;;;;14.88;8.10;;;;;;;14.08;100.00;102116.53;5074811;28;20307;-35
2022/10/29 00:26:01;;;;;;;12.97;8.17;;;;;;;13.99;100.00;102106.16;5074501;28;20028;-36
2022/10/29 00:28:27;;;;;;;;;;;;;;;14.14;100.00;102123.81;5074703;28;20727;-35
2022/10/29 00:30:52;;;;;;;15.18;8.32;;;;;;;14.00;100.00;102121.44;5074644;28;19965;-35
2022/10/29 00:33:19;;;;;;;12.95;7.60;;;;;;;13.94;100.00;102117.72;5074365;28;20059;-35
2022/10/29 00:36:03;;;;;;;16.30;8.90;;;;;;;13.92;100.00;102128.00;5073973;28;20116;-36
2022/10/29 00:38:30;;;;;;;17.48;8.10;;;;;;;13.79;100.00;102109.88;5074472;28;20056;-35
2022/10/29 00:40:55;;;;;;;13.70;7.70;;;;;;;13.81;100.00;102115.97;5073982;28;20116;-36
2022/10/29 00:43:23;;;;;;;14.63;8.13;;;;;;;13.82;100.00;102124.94;5074530;28;20052;-36
2022/10/29 00:46:00;;;;;;;12.30;7.88;;;;;;;13.82;100.00;102125.78;5074429;28;20445;-36
2022/10/29 00:48:29;;;;;;;16.90;8.90;;;;;;;13.81;100.00;102120.53;5074597;28;20406;-36
2022/10/29 00:50:57;;;;;;;15.95;8.82;;;;;;;13.82;100.00;102112.19;5073977;28;20381;-36
2022/10/29 00:53:27;;;;;;;12.43;8.02;;;;;;;13.88;100.00;102124.06;5074016;28;20107;-36
2022/10/29 00:55:53;;;;;;;15.32;8.73;;;;;;;13.91;100.00;102126.34;5073898;28;20449;-36
2022/10/29 00:58:19;;;;;;;;;;;;;;;14.02;100.00;102128.31;5074461;28;20119;-36
2022/10/29 01:00:45;;;;;;;12.40;8.20;;;;;;;14.00;100.00;102122.25;5073976;28;19916;-36
2022/10/29 01:03:10;;;;;;;13.55;8.20;;;;;;;14.06;100.00;102129.53;5074163;28;20506;-36
2022/10/29 01:05:36;;;;;;;;;;;;;;;14.14;100.00;102134.69;5074174;28;20471;-36
2022/10/29 01:08:02;;;;;;;19.88;9.80;;;;;;;14.10;100.00;102124.47;5073995;28;20424;-36
2022/10/29 01:10:52;;;;;;;18.95;8.35;;;;;;;14.15;100.00;102121.91;5073616;28;20439;-36
2022/10/29 01:13:32;;;;;;;10.57;8.10;;;;;;;14.14;100.00;102117.53;5074425;28;20024;-37
2022/10/29 01:16:06;;;;;;;16.55;8.88;;;;;;;14.17;100.00;102117.09;5073876;28;20376;-36
2022/10/29 01:18:43;;;;;;;14.65;8.82;;;;;;;14.22;100.00;102113.69;5074058;28;20037;-36
2022/10/29 01:21:08;;;;;;;16.70;9.40;;;;;;;14.20;100.00;102105.78;5073830;28;20020;-36
2022/10/29 01:24:10;;;;;;;18.57;9.30;;;;;;;14.16;100.00;102093.69;5073420;28;20487;-36
2022/10/29 01:27:09;;;;;;;16.83;9.63;;;;;;;14.18;100.00;102100.53;5073384;28;20250;-36
2022/10/29 01:29:59;;;;;;;17.52;9.10;;;;;;;14.16;100.00;102101.84;5073320;28;20031;-36
2022/10/29 01:32:53;;;;;;;14.30;8.85;;;;;;;14.10;100.00;102091.81;5074109;28;20033;-36
2022/10/29 01:35:30;;;;;;;12.32;7.90;;;;;;;14.09;100.00;102104.59;5073288;28;20041;-36
2022/10/29 01:38:22;;;;;;;14.70;9.07;;;;;;;14.09;100.00;102104.59;5073853;28;20066;-36
2022/10/29 01:41:20;;;;;;;14.57;8.55;;;;;;;14.05;100.00;102092.50;5073442;28;20523;-36
2022/10/29 01:43:57;;;;;;;14.32;9.05;;;;;;;14.00;100.00;102091.50;5073172;28;20024;-36
2022/10/29 01:46:30;;;;;;;11.65;8.32;;;;;;;14.00;100.00;102083.34;5072943;28;20020;-36
2022/10/29 01:48:59;;;;;;;11.65;7.63;;;;;;;13.88;100.00;102058.78;5073397;28;20021;-36
2022/10/29 01:51:31;;;;;;;13.77;8.48;;;;;;;13.96;100.00;102072.13;5073043;28;20479;-36
2022/10/29 01:53:58;;;;;;;14.60;9.32;;;;;;;13.89;100.00;102072.16;5073276;28;20464;-36
2022/10/29 01:56:24;;;;;;;15.65;9.80;;;;;;;13.82;100.00;102051.53;5072964;28;20093;-36
2022/10/29 01:58:52;;;;;;;;;;;;;;;13.95;100.00;102056.81;5074105;28;20449;-36
2022/10/29 02:01:29;;;;;;;14.70;9.05;;;;;;;13.80;100.00;102050.91;5072026;28;20355;-36
2022/10/29 02:04:19;;;;;;;16.25;8.70;;;;;;;13.79;100.00;102060.94;5072507;28;20025;-36
2022/10/29 02:06:59;;;;;;;16.40;9.60;;;;;;;13.69;100.00;102054.38;5073394;28;20045;-36
2022/10/29 02:09:34;;;;;;;12.68;8.88;;;;;;;13.65;100.00;102056.69;5073577;28;20036;-36
2022/10/29 02:12:09;;;;;;;12.75;7.65;;;;;;;13.57;100.00;102052.38;5072876;28;20060;-36
2022/10/29 02:14:49;;;;;;;14.50;8.50;;;;;;;13.55;100.00;102051.75;5072407;28;20529;-35
2022/10/29 02:17:14;;;;;;;12.15;9.10;;;;;;;13.49;100.00;102060.78;5073529;28;20035;-36
2022/10/29 02:19:39;;;;;;;13.53;8.60;;;;;;;13.53;100.00;102056.59;5072997;28;20029;-36
2022/10/29 02:22:05;;;;;;;11.77;7.05;;;;;;;13.50;100.00;102051.56;5072668;28;20032;-36
2022/10/29 02:24:30;;;;;;;13.45;7.93;;;;;;;13.53;100.00;102056.59;5072662;28;20060;-36
2022/10/29 02:26:56;;;;;;;16.47;9.23;;;;;;;13.51;100.00;102061.38;5073179;28;20021;-36
2022/10/29 02:29:21;;;;;;;14.70;8.83;;;;;;;13.44;100.00;102040.78;5071702;28;20263;-35
2022/10/29 02:31:46;;;;;;;15.90;8.83;;;;;;;13.40;100.00;102041.19;5072314;28;20298;-35
2022/10/29 02:34:12;;;;;;;13.10;8.43;;;;;;;13.36;100.00;102033.72;5072577;28;20501;-36
2022/10/29 02:36:37;;;;;;;12.65;8.13;;;;;;;13.37;100.00;102038.09;5073376;28;20040;-35
2022/10/29 02:39:03;;;;;;;12.38;8.68;;;;;;;13.34;100.00;102038.53;5072398;28;20024;-35
2022/10/29 02:41:28;;;;;;;13.35;8.55;;;;;;;13.30;100.00;102029.16;5072955;28;20117;-36
2022/10/29 02:43:53;;;;;;;11.27;8.90;;;;;;;13.30;100.00;102026.44;5072200;28;20047;-35
2022/10/29 02:46:21;;;;;;;15.17;9.27;;;;;;;13.29;100.00;102027.50;5072361;28;20332;-35
2022/10/29 02:48:46;;;;;;;13.95;9.20;;;;;;;13.23;100.00;102017.53;5072873;28;20414;-35
2022/10/29 02:51:12;;;;;;;16.73;8.40;;;;;;;13.25;100.00;102018.97;5072692;28;20110;-36
2022/10/29 02:53:38;;;;;;;15.00;8.75;;;;;;;13.23;100.00;102021.06;5073254;28;20468;-35
2022/10/29 02:56:04;;;;;;;15.13;9.17;;;;;;;13.23;100.00;102022.97;5072153;28;20033;-35
2022/10/29 02:58:29;;;;;;;;;;;;;;;13.32;100.00;102021.63;5073332;28;20028;-35
2022/10/29 03:00:54;;;;;;;14.60;8.27;;;;;;;13.18;100.00;102020.03;5072361;28;20283;-36
2022/10/29 03:03:20;;;;;;;11.68;8.13;;;;;;;13.22;100.00;102019.38;5072489;28;20028;-36
2022/10/29 03:05:45;;;;;;;14.35;7.88;;;;;;;13.14;100.00;102015.03;5072918;28;20040;-35
2022/10/29 03:08:10;;;;;;;14.07;8.30;;;;;;;13.14;100.00;102020.47;5072317;28;20028;-35
2022/10/29 03:10:36;;;;;;;14.30;8.13;;;;;;;13.10;100.00;102013.81;5072278;28;20075;-36
2022/10/29 03:13:01;;;;;;;14.73;8.07;;;;;;;13.11;100.00;102012.75;5075675;28;20247;-35
2022/10/29 03:15:27;;;;;;;14.77;9.27;;;;;;;13.10;100.00;102002.13;5075651;28;20070;-35
2022/10/29 03:17:52;;;;;;;16.92;10.40;;;;;;;13.24;100.00;102003.72;5076365;28;20380;-36
2022/10/29 03:20:18;;;;;;;18.88;9.88;;;;;;;13.13;100.00;101998.97;5076248;28;20028;-35
2022/10/29 03:22:43;;;;;;;13.63;8.43;;;;;;;13.13;100.00;102005.22;5076257;28;20051;-36
2022/10/29 03:25:08;;;;;;;14.37;9.83;;;;;;;13.05;100.00;102001.94;5075632;28;20070;-36
2022/10/29 03:27:41;;;;;;;14.70;8.73;;;;;;;13.12;100.00;102000.00;5075517;28;20029;-35
2022/10/29 03:30:15;;;;;;;14.02;9.05;;;;;;;13.12;100.00;102000.00;5075362;28;20029;-35
2022/10/29 03:32:42;;;;;;;15.52;9.38;;;;;;;13.10;100.00;101991.25;5076210;28;20101;-35
2022/10/29 03:35:09;;;;;;;18.33;9.30;;;;;;;13.05;100.00;101989.19;5075568;28;20032;-35
2022/10/29 03:37:34;;;;;;;17.95;9.77;;;;;;;13.04;100.00;101976.69;5076063;28;20039;-35
2022/10/29 03:39:59;;;;;;;14.63;9.32;;;;;;;13.06;100.00;101985.41;5075546;28;20032;-35
2022/10/29 03:42:25;;;;;;;15.90;9.57;;;;;;;13.09;100.00;101982.28;5075542;28;20102;-35
2022/10/29 03:44:50;;;;;;;15.98;9.88;;;;;;;13.19;100.00;101989.13;5074783;28;20116;-35
2022/10/29 03:47:15;;;;;;;12.57;8.97;;;;;;;13.20;100.00;101985.34;5075213;28;20398;-35
2022/10/29 03:49:41;;;;;;;17.00;9.93;;;;;;;13.23;100.00;101983.03;5074603;28;20081;-35
2022/10/29 03:52:06;;;;;;;14.03;9.47;;;;;;;13.24;100.00;101983.88;5074825;28;20040;-36
2022/10/29 03:54:31;;;;;;;19.07;10.50;;;;;;;13.24;100.00;101981.16;5075793;28;20349;-35
2022/10/29 03:56:56;;;;;;;15.60;10.00;;;;;;;13.21;100.00;101971.53;5074928;28;20829;-36
2022/10/29 03:59:22;;;;;;;16.67;10.03;;;;;;;13.29;100.00;102000.34;5074424;28;20125;-35
2022/10/29 04:01:47;;;;;;;20.70;10.33;;;;;;;13.30;100.00;101986.53;5075303;28;20055;-35
2022/10/29 04:04:12;;;;;;;20.47;10.30;;;;;;;13.21;100.00;101970.69;5075345;28;20263;-36
2022/10/29 04:06:38;;;;;;;15.27;9.87;;;;;;;13.22;100.00;101961.53;5075222;28;20297;-35
2022/10/29 04:09:03;;;;;;;19.42;10.52;;;;;;;13.18;100.00;101955.69;5075212;28;20546;-36
2022/10/29 04:11:28;;;;;;;16.90;10.73;;;;;;;13.24;100.00;101968.41;5075049;28;20464;-35
2022/10/29 04:13:54;;;;;;;14.38;10.02;;;;;;;13.23;100.00;101957.78;5075046;28;20082;-35
2022/10/29 04:16:19;;;;;;;16.20;9.93;;;;;;;13.22;100.00;101950.66;5074929;28;20058;-35
2022/10/29 04:18:48;;;;;;;12.23;9.20;;;;;;;13.23;100.00;101963.22;5075245;28;20742;-35
2022/10/29 04:21:14;;;;;;;15.40;9.75;;;;;;;13.20;100.00;101958.19;5074420;28;20755;-35
2022/10/29 04:23:39;;;;;;;13.38;8.80;;;;;;;13.17;100.00;101954.00;5073781;28;20029;-35
2022/10/29 04:26:04;;;;;;;18.87;9.47;;;;;;;13.12;100.00;101954.66;5074844;28;20468;-35
2022/10/29 04:28:30;;;;;;;14.23;9.43;;;;;;;13.09;100.00;101949.69;5074003;28;20279;-35
2022/10/29 04:30:55;;;;;;;14.67;10.27;;;;;;;13.03;100.00;101937.00;5074274;28;20031;-36
2022/10/29 04:33:20;;;;;;;11.63;9.53;;;;;;;13.09;100.00;101944.25;5075234;28;20278;-35
2022/10/29 04:35:52;;;;;;;16.25;10.55;;;;;;;13.08;100.00;101933.63;5074137;28;20057;-35
2022/10/29 04:38:17;;;;;;;19.25;10.70;;;;;;;12.99;100.00;101915.94;5074325;28;20028;-35
2022/10/29 04:40:42;;;;;;;17.60;10.43;;;;;;;13.06;100.00;101936.53;5074571;28;20369;-35
2022/10/29 04:43:07;;;;;;;17.43;10.77;;;;;;;13.06;100.00;101935.72;5074084;28;20473;-35
2022/10/29 04:45:33;;;;;;;19.03;10.50;;;;;;;13.07;100.00;101943.63;5074137;28;20024;-35
2022/10/29 04:47:59;;;;;;;17.13;9.65;;;;;;;13.02;100.00;101929.88;5074797;28;20470;-35
2022/10/29 04:50:25;;;;;;;17.35;9.88;;;;;;;13.03;100.00;101942.44;5073769;28;20029;-36
2022/10/29 04:52:50;;;;;;;17.17;10.23;;;;;;;13.01;100.00;101947.25;5074698;28;20173;-35
2022/10/29 04:55:15;;;;;;;14.53;8.80;;;;;;;13.05;100.00;101943.03;5073721;28;20044;-35
2022/10/29 04:57:41;;;;;;;11.47;8.53;;;;;;;13.05;100.00;101955.78;5074255;28;20286;-35
2022/10/29 05:00:07;;;;;;;14.73;8.23;;;;;;;13.05;100.00;101953.06;5073985;28;20746;-35
2022/10/29 05:02:32;;;;;;;17.33;9.27;;;;;;;12.96;100.00;101949.78;5074001;28;20040;-35
2022/10/29 05:04:57;;;;;;;14.17;9.83;;;;;;;12.97;100.00;101946.00;5074173;28;20381;-35
2022/10/29 05:07:23;;;;;;;17.70;9.40;;;;;;;12.92;100.00;101932.25;5074061;28;20487;-35
2022/10/29 05:09:48;;;;;;;15.27;10.27;;;;;;;12.92;100.00;101937.69;5073773;28;20313;-35
2022/10/29 05:12:13;;;;;;;14.20;10.30;;;;;;;12.94;100.00;101937.50;5074299;28;20104;-35
2022/10/29 05:14:38;;;;;;;17.67;11.77;;;;;;;12.92;100.00;101934.97;5073408;28;20281;-35
2022/10/29 05:17:04;;;;;;;15.87;11.37;;;;;;;12.94;100.00;101935.59;5073610;28;20107;-35
2022/10/29 05:19:29;;;;;;;23.77;12.10;;;;;;;12.94;100.00;101937.50;5073441;28;20024;-35
2022/10/29 05:21:54;;;;;;;20.73;12.00;;;;;;;12.88;100.00;101925.59;5073582;28;20255;-35
2022/10/29 05:24:20;;;;;;;16.97;10.80;;;;;;;12.95;100.00;101934.56;5072214;28;20214;-36
2022/10/29 05:26:45;;;;;;;17.97;10.63;;;;;;;12.97;100.00;101928.88;5073286;28;20441;-35
2022/10/29 05:29:10;;;;;;;14.90;10.37;;;;;;;12.94;100.00;101924.75;5073526;28;20797;-35
2022/10/29 05:31:35;;;;;;;21.70;11.33;;;;;;;12.94;100.00;101938.31;5073158;28;20032;-35
2022/10/29 05:34:01;;;;;;;19.60;12.53;;;;;;;12.96;100.00;101932.66;5073353;28;20050;-35
2022/10/29 05:36:26;;;;;;;18.33;12.40;;;;;;;12.95;100.00;101931.84;5072983;28;20025;-36
2022/10/29 05:38:51;;;;;;;23.50;12.17;;;;;;;12.92;100.00;101923.28;5073363;28;20754;-35
2022/10/29 05:41:17;;;;;;;16.47;11.00;;;;;;;12.86;100.00;101922.28;5073137;28;20459;-35
2022/10/29 05:43:42;;;;;;;18.15;10.90;;;;;;;12.87;100.00;101921.22;5073633;28;20029;-36
2022/10/29 05:46:07;;;;;;;16.60;10.60;;;;;;;12.78;100.00;101898.94;5073105;28;20427;-36
2022/10/29 05:48:33;;;;;;;15.70;11.00;;;;;;;12.96;100.00;101911.78;5073808;28;20453;-35
2022/10/29 05:50:58;;;;;;;17.23;10.70;;;;;;;12.95;100.00;101907.41;5073362;28;20266;-35
2022/10/29 05:53:23;;;;;;;16.90;10.67;;;;;;;13.00;100.00;101918.44;5073627;28;20099;-35
2022/10/29 05:55:49;;;;;;;15.43;11.00;;;;;;;12.97;100.00;101899.84;5072719;28;20162;-35
2022/10/29 05:58:14;;;;;;;18.98;11.27;;;;;;;13.06;100.00;101906.69;5073528;28;20163;-35
2022/10/29 06:00:42;;;;;;;19.63;11.00;;;;;;;13.02;100.00;101902.72;5073133;28;20070;-35
2022/10/29 06:03:11;;;;;;;19.15;11.20;;;;;;;13.02;100.00;101905.44;5073217;28;20028;-35
2022/10/29 06:05:37;;;;;;;18.33;11.90;;;;;;;12.98;100.00;101887.97;5072670;28;20055;-35
2022/10/29 06:08:02;;;;;;;21.90;12.70;;;;;;;13.06;100.00;101890.38;5072778;28;20028;-35
2022/10/29 06:10:28;;;;;;;25.42;13.15;;;;;;;12.96;100.00;101859.38;5073205;28;20483;-35
2022/10/29 06:12:53;;;;;;;22.45;13.65;;;;;;;13.13;100.00;101883.03;5072571;28;20377;-35
2022/10/29 06:15:19;;;;;;;20.40;12.80;;;;;;;13.18;100.00;101887.78;5072548;28;20109;-35
2022/10/29 06:17:45;;;;;;;19.98;12.60;;;;;;;13.20;100.00;101901.13;5073362;28;20063;-35
2022/10/29 06:20:12;;;;;;;18.38;12.70;;;;;;;13.24;100.00;101900.50;5073508;28;20131;-35
2022/10/29 06:22:38;;;;;;;17.05;12.88;;;;;;;13.26;100.00;101901.09;5072981;28;20420;-35
2022/10/29 06:25:04;;;;;;;21.95;13.20;;;;;;;13.27;100.00;101904.66;5072633;28;20085;-35
2022/10/29 06:27:29;;;;;;;;;;;;;;;13.35;100.00;101897.03;5073761;28;20029;-35
2022/10/29 06:29:55;;;;;;;19.77;12.60;;;;;;;13.34;100.00;101897.28;5072628;28;19962;-35
2022/10/29 06:32:20;;;;;;;24.20;13.73;;;;;;;13.31;100.00;101889.56;5072896;28;20503;-36
2022/10/29 06:34:45;;;;;;;20.70;13.50;;;;;;;13.40;100.00;101912.69;5072582;28;20088;-35
2022/10/29 06:37:11;;;;;;;21.07;13.77;;;;;;;13.39;100.00;101905.59;5072636;28;20120;-35
2022/10/29 06:39:36;;;;;;;20.53;12.73;;;;;;;13.43;100.00;101912.25;5073054;28;20312;-35
2022/10/29 06:42:02;;;;;;;23.47;12.57;;;;;;;13.42;100.00;101905.16;5072435;28;20028;-35
2022/10/29 06:44:27;;;;;;;20.55;12.23;;;;;;;13.47;100.00;101902.59;5072467;28;20279;-35
2022/10/29 06:46:52;;;;;;;26.13;12.67;;;;;;;13.48;100.00;101909.69;5075474;28;20027;-35
2022/10/29 06:49:19;;;;;;;24.50;13.43;;;;;;;13.50;100.00;101920.31;5076764;28;20033;-36
2022/10/29 06:51:44;;;;;;;19.25;13.02;;;;;;;13.47;100.00;101916.19;5076326;28;20568;-35
2022/10/29 06:54:09;;;;;;;18.87;12.80;;;;;;;13.48;100.00;101917.84;5076523;28;20085;-35
2022/10/29 06:56:35;;;;;;;18.90;12.90;;;;;;;13.46;100.00;101911.78;5075084;28;20060;-35
2022/10/29 06:59:00;;;;;;;21.00;12.48;;;;;;;13.47;100.00;101920.75;5075936;28;20039;-35
2022/10/29 07:01:27;;;;;;;22.35;12.75;;;;;;;13.46;100.00;101914.50;5075831;28;20041;-35
2022/10/29 07:03:53;;;;;;;22.90;12.35;;;;;;;13.51;100.00;101920.09;5076720;28;20032;-35
2022/10/29 07:06:18;;;;;;;20.33;13.07;;;;;;;13.50;100.00;101906.72;5076460;28;20135;-35
2022/10/29 07:08:43;;;;;;;23.27;12.20;;;;;;;13.55;100.00;101915.88;5076702;28;20036;-35
2022/10/29 07:11:09;;;;;;;19.10;12.27;;;;;;;13.58;100.00;101917.31;5076713;28;20029;-35
2022/10/29 07:13:34;;;;;;;22.88;12.85;;;;;;;13.59;100.00;101919.81;5076407;28;20381;-35
2022/10/29 07:16:00;;;;;;;22.60;12.38;;;;;;;13.61;100.00;101914.97;5075819;28;20404;-35
2022/10/29 07:18:25;;;;;;;19.30;11.85;;;;;;;13.59;100.00;101908.09;5076017;28;20052;-35
2022/10/29 07:20:50;;;;;;;22.02;13.18;;;;;;;13.65;100.00;101918.06;5075795;28;20107;-35
2022/10/29 07:23:16;;;;;;;22.80;13.20;;;;;;;13.62;100.00;101913.94;5075176;28;20028;-35
2022/10/29 07:25:42;;;;;;;22.63;13.57;;;;;;;13.61;100.00;101901.38;5075719;28;20291;-35
2022/10/29 07:28:11;;;;;;;21.15;12.85;;;;;;;13.65;100.00;101905.31;5076407;28;20403;-35
2022/10/29 07:30:37;;;;;;;20.92;12.65;;;;;;;13.69;100.00;101894.81;5075577;28;20397;-35
2022/10/29 07:33:02;;;;;;;22.23;13.63;;;;;;;13.72;100.00;101899.00;5075987;28;20035;-35
2022/10/29 07:35:28;;;;;;;19.02;13.20;;;;;;;13.64;100.00;101886.50;5075851;28;20028;-35
2022/10/29 07:38:01;;;;;;;21.67;13.63;;;;;;;13.74;100.00;101891.44;5075772;28;20035;-35
2022/10/29 07:40:26;;;;;;;20.45;13.80;;;;;;;13.65;100.00;101875.41;5075367;28;20040;-35
2022/10/29 07:42:52;;;;;;;22.77;13.68;;;;;;;13.77;100.00;101890.97;5075207;28;20025;-35
2022/10/29 07:45:17;;;;;;;25.33;14.20;;;;;;;13.76;100.00;101892.88;5074970;28;20028;-35
2022/10/29 07:47:42;;;;;;;;;;;;;;;13.86;100.00;101898.59;5074685;28;20549;-35
2022/10/29 07:50:08;;;;;;;22.27;13.20;;;;;;;13.77;100.00;101890.97;5075245;28;19920;-36
2022/10/29 07:52:33;;;;;;;22.90;13.65;;;;;;;13.86;100.00;101893.16;5075606;28;20254;-35
2022/10/29 07:55:01;;;;;;;17.70;12.97;;;;;;;13.90;100.00;101885.38;5075233;28;20381;-35
2022/10/29 07:57:26;;;;;;;18.27;13.23;;;;;;;13.95;100.00;101890.94;5074364;28;20255;-36
2022/10/29 07:59:51;;;;;;;19.37;13.10;;;;;;;13.98;100.00;101889.69;5075135;28;20039;-35
2022/10/29 08:02:17;;;;;;;18.03;13.20;;;;;;;13.95;100.00;101881.97;5075401;28;20032;-35
2022/10/29 08:04:42;;;;;;;17.10;13.43;;;;;;;13.94;100.00;101869.44;5074782;28;20301;-35
2022/10/29 08:07:08;;;;;;;23.73;13.50;;;;;;;14.03;100.00;101882.50;5075671;28;20128;-35
2022/10/29 08:09:34;;;;;;;19.70;13.37;;;;;;;14.13;100.00;101890.94;5074661;28;20112;-35
2022/10/29 08:11:59;;;;;;;;;;;;;;;14.19;100.00;101886.47;5075044;28;20017;-35
2022/10/29 08:14:24;;;;;;;20.43;13.00;;;;;;;14.18;100.00;101891.06;5074844;28;19995;-35
2022/10/29 08:16:52;;;;;;;18.20;13.97;;;;;;;14.22;100.00;101887.91;5075108;28;20258;-35
2022/10/29 08:19:17;;;;;;;20.77;14.52;;;;;;;14.26;100.00;101875.50;5075531;28;20365;-35
2022/10/29 08:21:43;;;;;;;;;;;;;;;14.34;100.00;101876.00;5075546;28;20032;-36
2022/10/29 08:24:09;;;;;;;18.27;13.82;;;;;;;14.39;100.00;101864.41;5074805;28;19916;-35
2022/10/29 08:26:34;;;;;;;26.80;14.98;;;;;;;14.44;100.00;101867.28;5074511;28;20032;-35
2022/10/29 08:28:59;;;;;;;20.17;14.67;;;;;;;14.49;100.00;101875.59;5074608;28;20054;-35
2022/10/29 08:31:25;;;;;;;22.60;14.57;;;;;;;14.54;100.00;101859.44;5074516;28;20040;-35
2022/10/29 08:33:50;;;;;;;19.87;15.33;;;;;;;14.58;100.00;101852.44;5075009;28;20263;-35
2022/10/29 08:36:15;;;;;;;;;;;;;;;14.65;100.00;101861.34;5074748;28;20432;-35
2022/10/29 08:38:41;;;;;;;18.00;12.90;;;;;;;14.61;100.00;101851.97;5075029;28;19912;-35
2022/10/29 08:41:28;;;;;;;21.08;14.13;;;;;;;14.67;100.00;101856.50;5074306;28;20472;-35
2022/10/29 08:44:15;;;;;;;22.02;15.30;;;;;;;14.76;100.00;101869.78;5074744;28;20101;-35
2022/10/29 08:46:43;;;;;;;20.45;15.68;;;;;;;14.82;100.00;101880.53;5074065;28;20074;-35
2022/10/29 08:49:17;;;;;;;22.02;14.07;;;;;;;14.90;100.00;101891.09;5074694;28;20028;-36
2022/10/29 08:51:49;;;;;;;20.25;14.77;;;;;;;14.95;100.00;101879.50;5074498;28;20346;-35
2022/10/29 08:54:14;;;;;;;19.13;13.35;;;;;;;15.00;100.00;101874.19;5074177;28;20074;-35
2022/10/29 08:56:49;;;;;;;24.17;15.20;;;;;;;15.07;100.00;101877.63;5074617;28;20024;-35
2022/10/29 08:59:20;;;;;;;22.13;14.43;;;;;;;15.13;100.00;101870.41;5073908;28;20060;-35
2022/10/29 09:01:46;;;;;;;22.80;15.10;;;;;;;15.11;100.00;101853.47;5073601;28;20063;-35
2022/10/29 09:04:17;;;;;;;21.88;14.40;;;;;;;15.16;100.00;101853.56;5073883;28;20082;-36
2022/10/29 09:06:52;;;;;;;21.77;15.43;;;;;;;15.22;100.00;101849.06;5074414;28;20048;-36
2022/10/29 09:09:33;;;;;;;23.40;14.38;;;;;;;15.30;100.00;101857.72;5073349;28;20082;-35
2022/10/29 09:12:29;;;;;;;22.15;14.82;;;;;;;15.37;100.00;101852.13;5074203;28;20055;-36
2022/10/29 09:15:16;;;;;;;22.55;14.57;;;;;;;15.46;100.00;101847.97;5073898;28;20037;-35
2022/10/29 09:17:51;;;;;;;19.00;14.65;;;;;;;15.57;100.00;101840.88;5073887;28;20488;-35
2022/10/29 09:20:29;;;;;;;20.92;15.00;;;;;;;15.64;100.00;101842.41;5074013;28;20051;-35
2022/10/29 09:23:10;;;;;;;19.17;14.40;;;;;;;15.58;100.00;101831.63;5073740;28;20417;-36
2022/10/29 09:25:35;;;;;;;20.35;14.15;;;;;;;15.79;100.00;101852.81;5074094;28;20024;-35
2022/10/29 09:28:31;;;;;;;20.20;13.27;;;;;;;15.83;100.00;101850.44;5074121;28;20142;-35
2022/10/29 09:31:12;;;;;;;18.52;14.10;;;;;;;15.87;100.00;101843.44;5073319;28;20083;-36
2022/10/29 09:33:38;;;;;;;22.77;13.60;;;;;;;15.91;100.00;101850.91;5073964;28;20043;-35
2022/10/29 09:36:13;;;;;;;22.35;14.15;;;;;;;15.94;100.00;101849.56;5073199;28;20477;-35
2022/10/29 09:38:52;;;;;;;22.90;14.20;;;;;;;15.97;100.00;101838.19;5073180;28;20029;-35
2022/10/29 09:41:20;;;;;;;22.83;14.27;;;;;;;15.95;100.00;101834.84;5073413;28;20060;-35
2022/10/29 09:43:55;;;;;;;19.83;13.68;;;;;;;15.97;100.00;101835.47;5073206;28;20487;-36
2022/10/29 09:46:34;;;;;;;21.45;14.48;;;;;;;16.01;100.00;101853.00;5073450;28;20031;-35
2022/10/29 09:49:24;;;;;;;19.63;13.45;;;;;;;16.04;100.00;101838.03;5073502;28;20024;-36
2022/10/29 09:51:59;;;;;;;19.60;14.52;;;;;;;16.09;100.00;101841.69;5072816;28;20059;-35
2022/10/29 09:54:28;;;;;;;17.63;13.13;;;;;;;16.10;100.00;101831.59;5073437;28;20028;-35
2022/10/29 09:56:54;;;;;;;20.88;13.55;;;;;;;16.16;100.00;101823.28;5073105;28;20036;-35
2022/10/29 09:59:39;;;;;;;;;;;;;;;16.26;100.00;101813.63;5074216;28;20055;-35
2022/10/29 10:02:25;;;;;;;22.40;13.70;;;;;;;16.32;100.00;101808.00;5071856;28;19908;-35
2022/10/29 10:04:54;;;;;;;23.92;14.32;;;;;;;16.44;100.00;101810.66;5073559;28;20053;-35
2022/10/29 10:07:19;;;;;;;23.73;14.02;;;;;;;16.58;100.00;101816.63;5072310;28;20494;-35
2022/10/29 10:09:54;;;;;;;21.17;12.93;;;;;;;16.66;100.00;101819.78;5072858;28;20028;-35
2022/10/29 10:12:36;;;;;;;20.17;12.80;;;;;;;16.83;100.00;101818.97;5073450;28;20436;-35
2022/10/29 10:15:13;;;;;;;18.80;12.45;;;;;;;17.12;100.00;101809.59;5072738;28;20526;-35
2022/10/29 10:17:59;;;;;;;17.70;11.38;;;;;;;17.47;100.00;101808.41;5073485;28;20029;-35
2022/10/29 10:20:30;;;;;;;13.38;10.90;;;;;;;17.71;100.00;101809.00;5068694;28;20041;-35
2022/10/29 10:22:56;;;;;;;16.55;10.90;;;;;;;17.94;100.00;101806.00;5072938;28;20025;-35
2022/10/29 10:25:37;;;;;;;;;;;;;;;18.08;100.00;101800.97;5073601;28;20025;-35
2022/10/29 10:28:22;;;;;;;18.98;10.63;;;;;;;18.25;100.00;101804.44;5073034;28;20004;-35
2022/10/29 10:31:03;;;;;;;16.25;9.55;;;;;;;18.35;100.00;101787.28;5072505;28;20036;-35
2022/10/29 10:33:30;;;;;;;15.48;9.60;;;;;;;18.45;100.00;101786.53;5072855;28;20127;-35
2022/10/29 10:36:00;;;;;;;17.38;8.20;;;;;;;18.52;100.00;101792.63;5105415;28;20111;-35
2022/10/29 10:38:26;;;;;;;12.90;8.73;;;;;;;18.59;100.00;101793.22;5073068;28;20028;-35
2022/10/29 10:41:01;;;;;;;;;;;;;;;18.71;100.00;101782.94;5073224;28;20033;-35
2022/10/29 10:43:27;;;;;;;22.58;7.63;;;;;;;18.77;100.00;101784.63;5073238;28;20018;-35
2022/10/29 10:45:55;;;;;;;;;;;;;;;18.87;100.00;101783.03;5072749;28;20055;-35
2022/10/29 10:48:22;;;;;;;13.73;6.82;;;;;;;18.99;99.68;101780.94;5073206;28;19960;-35
2022/10/29 10:50:47;;;;;;;16.40;6.68;;;;;;;19.08;99.87;101784.84;5073201;28;20460;-35
2022/10/29 10:53:16;;;;;;;;;;;;;;;19.21;100.00;101784.34;5073222;28;20103;-35
2022/10/29 10:55:48;;;;;;;16.30;7.50;;;;;;;19.30;96.72;101774.53;5072445;28;19916;-35
2022/10/29 10:58:20;;;;;;;14.00;7.57;;;;;;;19.41;95.71;101760.84;5072543;28;20050;-35
2022/10/29 11:00:52;;;;;;;18.60;7.93;;;;;;;19.41;94.45;101760.84;5072228;28;20346;-35
2022/10/29 11:03:23;;;;;;;19.15;6.70;;;;;;;19.46;93.55;101764.44;5072689;28;20424;-35
2022/10/29 11:06:00;;;;;;;17.75;6.68;;;;;;;19.55;93.80;101762.00;5072595;28;20139;-35
2022/10/29 11:08:29;;;;;;;;;;;;;;;19.65;99.09;101770.31;5072637;28;20042;-35
2022/10/29 11:11:00;;;;;;;14.32;7.05;;;;;;;19.77;92.75;101768.16;5072897;28;19951;-35
2022/10/29 11:13:28;;;;;;;21.30;9.48;;;;;;;19.84;91.59;101767.91;5072759;28;20024;-35
2022/10/29 11:16:03;;;;;;;14.25;6.43;;;;;;;20.00;90.85;101757.75;5072057;28;20028;-35
2022/10/29 11:18:50;;;;;;;13.02;6.80;;;;;;;20.03;88.97;101774.53;5072450;28;20370;-35